createdAt,value
2019-04-27T00:00:14.047Z,7.73
2019-04-27T00:03:05.633Z,8.20
2019-04-27T00:05:35.495Z,9.33
2019-04-27T00:08:11.613Z,4.23
2019-04-27T00:10:50.664Z,5.57
2019-04-27T00:13:19.195Z,4.57
2019-04-27T00:15:49.220Z,7.63
2019-04-27T00:18:34.365Z,5.77
2019-04-27T00:21:23.679Z,4.33
2019-04-27T00:23:53.187Z,4.33
2019-04-27T00:26:23.329Z,5.83
2019-04-27T00:28:53.767Z,5.27
2019-04-27T00:31:23.400Z,4.23
2019-04-27T00:33:53.593Z,5.67
2019-04-27T00:36:30.376Z,2.60
2019-04-27T00:39:15.497Z,4.70
2019-04-27T00:41:43.872Z,6.17
2019-04-27T00:44:13.510Z,5.30
2019-04-27T00:46:43.143Z,3.97
2019-04-27T00:49:13.672Z,4.03
2019-04-27T00:51:43.364Z,4.33
2019-04-27T00:54:13.616Z,4.03
2019-04-27T00:57:03.196Z,5.03
2019-04-27T00:59:43.195Z,5.10
2019-04-27T01:02:13.649Z,8.70
2019-04-27T01:04:43.428Z,6.13
2019-04-27T01:07:11.885Z,7.20
2019-04-27T01:09:40.277Z,6.57
2019-04-27T01:12:11.264Z,6.10
2019-04-27T01:14:39.644Z,6.90
2019-04-27T01:17:08.838Z,7.07
2019-04-27T01:19:39.228Z,6.13
2019-04-27T01:22:09.308Z,7.40
2019-04-27T01:24:39.142Z,7.07
2019-04-27T01:27:15.951Z,6.07
2019-04-27T01:29:44.328Z,4.73
2019-04-27T01:32:14.356Z,4.17
2019-04-27T01:34:42.881Z,5.73
2019-04-27T01:37:11.264Z,4.93
2019-04-27T01:39:39.665Z,6.03
2019-04-27T01:42:09.278Z,5.23
2019-04-27T01:44:39.354Z,4.37
2019-04-27T01:47:09.972Z,5.47
2019-04-27T01:49:39.701Z,4.63
2019-04-27T01:52:09.647Z,3.90
2019-04-27T01:54:39.290Z,3.67
2019-04-27T01:57:10.306Z,5.47
2019-04-27T01:59:39.188Z,6.53
2019-04-27T02:02:11.944Z,5.53
2019-04-27T02:04:54.328Z,3.67
2019-04-27T02:07:22.731Z,5.90
2019-04-27T02:09:51.104Z,3.33
2019-04-27T02:12:19.492Z,2.83
2019-04-27T02:15:00.164Z,7.40
2019-04-27T02:17:28.902Z,3.73
2019-04-27T02:19:59.428Z,4.97
2019-04-27T02:22:29.642Z,1.87
2019-04-27T02:24:59.101Z,3.10
2019-04-27T02:27:29.841Z,4.47
2019-04-27T02:30:05.844Z,4.83
2019-04-27T02:32:35.962Z,4.30
2019-04-27T02:35:09.069Z,5.53
2019-04-27T02:37:40.030Z,3.03
2019-04-27T02:40:43.504Z,3.67
2019-04-27T02:43:13.538Z,5.90
2019-04-27T02:45:41.924Z,3.50
2019-04-27T02:48:10.341Z,4.63
2019-04-27T02:50:39.933Z,2.00
2019-04-27T02:53:11.084Z,5.13
2019-04-27T02:55:40.023Z,3.37
2019-04-27T02:58:12.363Z,5.77
2019-04-27T03:00:40.077Z,2.80
2019-04-27T03:03:10.508Z,2.73
2019-04-27T03:05:39.884Z,4.90
2019-04-27T03:08:10.244Z,3.57
2019-04-27T03:10:40.059Z,4.73
2019-04-27T03:13:25.700Z,2.80
2019-04-27T03:16:00.463Z,2.73
2019-04-27T03:18:32.856Z,3.40
2019-04-27T03:21:01.986Z,3.43
2019-04-27T03:23:30.521Z,3.33
2019-04-27T03:26:13.247Z,3.60
2019-04-27T03:28:41.689Z,3.37
2019-04-27T03:31:13.631Z,5.23
2019-04-27T03:33:42.871Z,3.13
2019-04-27T03:36:13.022Z,5.00
2019-04-27T03:38:40.475Z,4.07
2019-04-27T03:41:09.504Z,4.77
2019-04-27T03:43:40.243Z,4.07
2019-04-27T03:46:10.502Z,4.97
2019-04-27T03:48:40.731Z,7.03
2019-04-27T03:51:14.745Z,2.47
2019-04-27T03:53:49.587Z,4.70
2019-04-27T03:56:30.421Z,3.97
2019-04-27T03:59:03.518Z,6.67
2019-04-27T04:01:31.967Z,2.93
2019-04-27T04:04:00.418Z,4.37
2019-04-27T04:06:29.675Z,3.70
2019-04-27T04:09:00.165Z,5.70
2019-04-27T04:11:30.488Z,5.07
2019-04-27T04:14:00.497Z,4.70
2019-04-27T04:16:36.057Z,3.90
2019-04-27T04:19:09.829Z,5.30
2019-04-27T04:21:40.087Z,7.53
2019-04-27T04:24:11.863Z,3.87
2019-04-27T04:26:40.219Z,6.03
2019-04-27T04:29:10.238Z,4.73
2019-04-27T04:31:40.426Z,6.17
2019-04-27T04:34:12.186Z,5.60
2019-04-27T04:36:42.416Z,4.93
2019-04-27T04:39:12.299Z,4.37
2019-04-27T04:41:44.663Z,4.53
2019-04-27T04:44:20.757Z,6.43
2019-04-27T04:46:50.844Z,5.00
2019-04-27T04:49:19.513Z,5.13
2019-04-27T04:51:50.385Z,6.47
2019-04-27T04:54:19.854Z,5.97
2019-04-27T04:56:49.361Z,8.97
2019-04-27T04:59:19.944Z,9.43
2019-04-27T05:01:49.990Z,6.87
2019-04-27T05:04:19.341Z,8.20
2019-04-27T05:06:49.253Z,11.17
2019-04-27T05:09:19.328Z,11.50
2019-04-27T05:11:48.663Z,9.23
2019-04-27T05:14:19.820Z,7.33
2019-04-27T05:16:48.944Z,7.80
2019-04-27T05:19:18.849Z,9.13
2019-04-27T05:21:49.173Z,9.90
2019-04-27T05:24:19.234Z,9.87
2019-04-27T05:26:48.785Z,8.33
2019-04-27T05:29:19.114Z,10.07
2019-04-27T05:31:49.046Z,10.00
2019-04-27T05:34:19.535Z,9.63
2019-04-27T05:36:50.326Z,12.20
2019-04-27T05:39:24.754Z,11.57
2019-04-27T05:41:49.789Z,12.07
2019-04-27T05:44:25.429Z,13.03
2019-04-27T05:46:55.468Z,17.03
2019-04-27T05:49:36.419Z,16.80
2019-04-27T05:52:10.232Z,15.30
2019-04-27T05:54:36.396Z,11.40
2019-04-27T05:57:04.789Z,13.33
2019-04-27T05:59:33.188Z,14.33
2019-04-27T06:02:01.834Z,11.97
2019-04-27T06:04:30.225Z,13.20
2019-04-27T06:07:00.942Z,14.47
2019-04-27T06:09:29.046Z,13.37
2019-04-27T06:11:59.083Z,14.43
2019-04-27T06:14:29.254Z,14.00
2019-04-27T06:16:59.637Z,14.03
2019-04-27T06:19:29.208Z,12.23
2019-04-27T06:22:01.033Z,13.90
2019-04-27T06:24:29.758Z,13.47
2019-04-27T06:26:59.691Z,13.27
2019-04-27T06:29:29.217Z,12.27
2019-04-27T06:31:59.386Z,9.57
2019-04-27T06:34:28.741Z,12.00
2019-04-27T06:36:59.749Z,9.20
2019-04-27T06:39:29.660Z,9.97
2019-04-27T06:42:00.857Z,8.47
2019-04-27T06:44:29.378Z,9.17
2019-04-27T06:46:59.176Z,10.27
2019-04-27T06:49:29.477Z,9.23
2019-04-27T06:51:58.681Z,7.40
2019-04-27T06:54:28.835Z,8.17
2019-04-27T06:56:59.291Z,6.63
2019-04-27T06:59:28.826Z,8.00
2019-04-27T07:02:00.720Z,10.03
2019-04-27T07:04:29.428Z,8.43
2019-04-27T07:07:01.309Z,8.47
2019-04-27T07:09:29.493Z,6.83
2019-04-27T07:11:59.294Z,10.90
2019-04-27T07:14:29.513Z,8.77
2019-04-27T07:16:59.400Z,7.03
2019-04-27T07:19:30.228Z,7.10
2019-04-27T07:21:59.388Z,7.20
2019-04-27T07:24:29.229Z,8.30
2019-04-27T07:26:59.356Z,6.90
2019-04-27T07:29:29.280Z,12.07
2019-04-27T07:31:59.618Z,11.40
2019-04-27T07:34:30.452Z,12.57
2019-04-27T07:36:59.746Z,10.37
2019-04-27T07:39:29.390Z,9.33
2019-04-27T07:41:58.672Z,8.13
2019-04-27T07:44:29.414Z,11.63
2019-04-27T07:47:16.469Z,11.07
2019-04-27T07:49:46.295Z,11.23
2019-04-27T07:52:14.689Z,10.83
2019-04-27T07:54:43.154Z,8.23
2019-04-27T07:57:11.618Z,9.87
2019-04-27T07:59:42.057Z,14.93
2019-04-27T08:02:11.088Z,9.63
2019-04-27T08:04:40.087Z,10.17
2019-04-27T08:07:09.238Z,7.73
2019-04-27T08:09:39.748Z,10.03
2019-04-27T08:12:10.867Z,11.93
2019-04-27T08:14:39.617Z,12.50
2019-04-27T08:17:09.699Z,10.50
2019-04-27T08:19:39.450Z,11.23
2019-04-27T08:22:09.626Z,13.33
2019-04-27T08:24:39.609Z,7.13
2019-04-27T08:27:19.423Z,7.40
2019-04-27T08:29:55.745Z,8.93
2019-04-27T08:32:39.051Z,8.20
2019-04-27T08:35:09.572Z,8.43
2019-04-27T08:37:38.670Z,7.83
2019-04-27T08:40:09.409Z,7.80
2019-04-27T08:42:39.123Z,10.83
2019-04-27T08:45:09.515Z,11.13
2019-04-27T08:47:39.486Z,7.90
2019-04-27T08:50:09.198Z,13.50
2019-04-27T08:52:41.497Z,9.03
2019-04-27T08:55:09.651Z,12.83
2019-04-27T08:57:38.958Z,9.67
2019-04-27T09:00:09.400Z,8.53
2019-04-27T09:02:44.383Z,13.03
2019-04-27T09:05:10.745Z,9.53
2019-04-27T09:07:40.778Z,6.77
2019-04-27T09:10:18.788Z,6.10
2019-04-27T09:12:50.063Z,14.03
2019-04-27T09:15:29.327Z,7.77
2019-04-27T09:17:59.362Z,5.80
2019-04-27T09:20:35.160Z,9.00
2019-04-27T09:23:03.589Z,11.10
2019-04-27T09:25:32.020Z,7.70
2019-04-27T09:28:00.431Z,10.57
2019-04-27T09:30:29.787Z,10.90
2019-04-27T09:32:59.622Z,7.10
2019-04-27T09:35:29.091Z,9.30
2019-04-27T09:37:57.501Z,10.07
2019-04-27T09:40:26.745Z,7.13
2019-04-27T09:42:57.170Z,10.60
2019-04-27T09:45:27.099Z,16.33
2019-04-27T09:47:56.379Z,8.93
2019-04-27T09:50:27.937Z,10.57
2019-04-27T09:52:55.819Z,9.07
2019-04-27T09:55:26.358Z,7.40
2019-04-27T09:57:56.727Z,7.90
2019-04-27T10:00:27.593Z,7.50
2019-04-27T10:02:56.501Z,13.10
2019-04-27T10:05:26.498Z,8.77
2019-04-27T10:07:56.941Z,9.87
2019-04-27T10:10:26.806Z,7.53
2019-04-27T10:12:56.796Z,10.13
2019-04-27T10:15:26.718Z,14.77
2019-04-27T10:17:57.620Z,10.20
2019-04-27T10:20:25.902Z,10.80
2019-04-27T10:22:56.268Z,11.60
2019-04-27T10:25:26.025Z,9.40
2019-04-27T10:28:00.368Z,11.37
2019-04-27T10:30:31.331Z,9.50
2019-04-27T10:32:59.916Z,13.80
2019-04-27T10:35:28.300Z,10.57
2019-04-27T10:37:56.682Z,10.20
2019-04-27T10:40:26.385Z,11.20
2019-04-27T10:42:56.055Z,13.83
2019-04-27T10:45:25.238Z,14.47
2019-04-27T10:47:56.152Z,8.70
2019-04-27T10:50:26.539Z,6.93
2019-04-27T10:52:58.865Z,8.33
2019-04-27T10:55:26.520Z,5.70
2019-04-27T10:57:56.037Z,5.27
2019-04-27T11:00:38.937Z,7.10
2019-04-27T11:03:14.478Z,3.50
2019-04-27T11:08:36.194Z,9.73
2019-04-27T11:11:04.649Z,7.80
2019-04-27T11:13:33.103Z,6.17
2019-04-27T11:16:01.493Z,11.47
2019-04-27T11:18:29.942Z,4.50
2019-04-27T11:20:58.381Z,11.20
2019-04-27T11:23:26.848Z,12.47
2019-04-27T11:25:55.239Z,9.30
2019-04-27T11:28:23.632Z,10.07
2019-04-27T11:30:52.108Z,13.27
2019-04-27T11:33:20.504Z,8.10
2019-04-27T11:35:59.574Z,11.37
2019-04-27T11:38:27.968Z,12.20
2019-04-27T11:40:56.781Z,10.90
2019-04-27T11:43:26.107Z,6.07
2019-04-27T11:45:55.924Z,10.03
2019-04-27T11:48:26.251Z,7.30
2019-04-27T11:50:56.081Z,8.30
2019-04-27T11:53:26.238Z,8.50
2019-04-27T11:55:54.836Z,6.33
2019-04-27T11:58:23.229Z,9.17
2019-04-27T12:00:51.632Z,5.33
2019-04-27T12:03:20.017Z,4.60
2019-04-27T12:05:48.420Z,6.23
2019-04-27T12:08:16.812Z,8.83
2019-04-27T12:10:48.386Z,5.97
2019-04-27T12:13:16.898Z,4.27
2019-04-27T12:15:46.487Z,8.97
2019-04-27T12:18:15.481Z,5.30
2019-04-27T12:20:45.779Z,7.30
2019-04-27T12:23:16.359Z,6.57
2019-04-27T12:25:46.191Z,7.13
2019-04-27T12:28:28.634Z,5.23
2019-04-27T12:31:09.029Z,4.67
2019-04-27T12:33:37.706Z,6.93
2019-04-27T12:36:07.283Z,5.43
2019-04-27T12:38:36.571Z,7.43
2019-04-27T12:41:06.770Z,7.40
2019-04-27T12:43:37.412Z,7.13
2019-04-27T12:46:06.174Z,5.53
2019-04-27T12:48:37.167Z,4.43
2019-04-27T12:51:04.805Z,7.20
2019-04-27T12:53:48.573Z,5.87
2019-04-27T12:56:12.141Z,6.53
2019-04-27T12:58:42.173Z,7.17
2019-04-27T13:01:12.228Z,6.43
2019-04-27T13:03:40.605Z,7.87
2019-04-27T13:06:08.996Z,10.80
2019-04-27T13:08:37.397Z,9.93
2019-04-27T13:11:06.030Z,9.60
2019-04-27T13:13:34.567Z,8.30
2019-04-27T13:16:03.157Z,7.77
2019-04-27T13:18:31.562Z,9.93
2019-04-27T13:20:59.951Z,9.00
2019-04-27T13:23:28.643Z,8.10
2019-04-27T13:25:57.513Z,8.07
2019-04-27T13:28:25.909Z,11.50
2019-04-27T13:30:55.866Z,5.70
2019-04-27T13:33:26.230Z,6.70
2019-04-27T13:35:54.626Z,8.07
2019-04-27T13:38:23.014Z,6.00
2019-04-27T13:41:10.430Z,5.17
2019-04-27T13:43:39.685Z,4.83
2019-04-27T13:46:26.005Z,5.70
2019-04-27T13:49:02.220Z,5.97
2019-04-27T13:51:34.976Z,4.57
2019-04-27T13:54:14.444Z,6.20
2019-04-27T13:56:33.769Z,4.03
2019-04-27T13:59:03.356Z,7.07
2019-04-27T14:01:33.346Z,4.60
2019-04-27T14:04:01.743Z,9.43
2019-04-27T14:06:30.172Z,9.40
2019-04-27T14:08:58.909Z,8.13
2019-04-27T14:11:29.042Z,6.77
2019-04-27T14:13:58.040Z,6.97
2019-04-27T14:16:29.010Z,10.03
2019-04-27T14:18:59.248Z,7.53
2019-04-27T14:21:29.464Z,7.90
2019-04-27T14:23:58.585Z,5.80
2019-04-27T14:26:28.447Z,5.10
2019-04-27T14:28:58.378Z,4.77
2019-04-27T14:31:29.077Z,8.60
2019-04-27T14:33:58.710Z,8.43
2019-04-27T14:36:29.221Z,6.33
2019-04-27T14:38:58.838Z,6.47
2019-04-27T14:41:28.261Z,10.67
2019-04-27T14:44:06.066Z,4.93
2019-04-27T14:46:28.278Z,5.33
2019-04-27T14:48:57.474Z,4.80
2019-04-27T14:51:25.850Z,3.90
2019-04-27T14:53:54.244Z,5.23
2019-04-27T14:56:24.914Z,5.03
2019-04-27T14:58:52.902Z,6.10
2019-04-27T15:01:21.293Z,5.10
2019-04-27T15:03:49.705Z,9.80
2019-04-27T15:06:19.722Z,9.27
2019-04-27T15:08:49.182Z,9.93
2019-04-27T15:11:19.406Z,14.07
2019-04-27T15:13:49.987Z,8.40
2019-04-27T15:16:18.069Z,13.03
2019-04-27T15:18:50.860Z,11.17
2019-04-27T15:21:20.264Z,11.13
2019-04-27T15:23:49.328Z,14.77
2019-04-27T15:26:20.302Z,9.50
2019-04-27T15:28:51.133Z,10.97
2019-04-27T15:31:27.048Z,10.37
2019-04-27T15:34:11.171Z,10.10
2019-04-27T15:36:48.194Z,11.33
2019-04-27T15:39:34.724Z,11.37
2019-04-27T15:42:08.293Z,11.20
2019-04-27T15:44:36.533Z,13.13
2019-04-27T15:47:08.523Z,16.67
2019-04-27T15:49:35.239Z,8.33
2019-04-27T15:52:04.652Z,9.03
2019-04-27T15:54:33.681Z,12.20
2019-04-27T15:57:05.782Z,10.30
2019-04-27T15:59:37.789Z,8.70
2019-04-27T16:02:05.447Z,9.87
2019-04-27T16:04:34.491Z,5.77
2019-04-27T16:07:03.887Z,7.07
2019-04-27T16:09:32.284Z,7.77
2019-04-27T16:12:09.985Z,7.73
2019-04-27T16:14:30.783Z,10.03
2019-04-27T16:17:03.121Z,9.80
2019-04-27T16:19:29.319Z,7.73
2019-04-27T16:21:59.101Z,9.63
2019-04-27T16:24:28.999Z,12.57
2019-04-27T16:26:59.052Z,10.20
2019-04-27T16:29:31.495Z,12.17
2019-04-27T16:31:58.445Z,10.70
2019-04-27T16:34:28.552Z,10.50
2019-04-27T16:36:58.874Z,15.37
2019-04-27T16:39:28.663Z,16.60
2019-04-27T16:41:58.745Z,15.27
2019-04-27T16:44:27.528Z,10.87
2019-04-27T16:46:55.925Z,16.50
2019-04-27T16:49:24.320Z,17.17
2019-04-27T16:51:52.722Z,10.53
2019-04-27T16:54:21.541Z,14.83
2019-04-27T16:56:56.805Z,16.33
2019-04-27T16:59:39.574Z,17.00
2019-04-27T17:01:50.714Z,18.93
2019-04-27T17:04:19.107Z,14.80
2019-04-27T17:06:49.376Z,11.73
2019-04-27T17:09:18.950Z,9.57
2019-04-27T17:11:50.324Z,10.00
2019-04-27T17:14:26.553Z,11.23
2019-04-27T17:17:10.609Z,10.97
2019-04-27T17:19:41.323Z,9.73
2019-04-27T17:22:10.352Z,8.67
2019-04-27T17:24:43.809Z,6.27
2019-04-27T17:27:11.642Z,7.60
2019-04-27T17:29:41.441Z,10.87
2019-04-27T17:32:11.469Z,9.70
2019-04-27T17:34:39.867Z,15.40
2019-04-27T17:37:08.356Z,13.97
2019-04-27T17:39:38.560Z,25.07
2019-04-27T17:42:08.516Z,8.77
2019-04-27T17:44:39.162Z,11.43
2019-04-27T17:47:08.998Z,13.63
2019-04-27T17:49:38.163Z,7.63
2019-04-27T17:52:08.631Z,12.03
2019-04-27T17:54:40.821Z,15.63
2019-04-27T17:57:10.371Z,10.03
2019-04-27T17:59:37.461Z,12.63
2019-04-27T18:02:06.514Z,10.03
2019-04-27T18:04:37.681Z,12.53
2019-04-27T18:07:05.346Z,12.90
2019-04-27T18:09:39.955Z,14.33
2019-04-27T18:12:14.595Z,13.00
2019-04-27T18:14:41.342Z,19.33
2019-04-27T18:17:12.134Z,17.57
2019-04-27T18:19:47.560Z,18.23
2019-04-27T18:22:17.875Z,18.57
2019-04-27T18:24:47.722Z,13.47
2019-04-27T18:27:23.477Z,22.50
2019-04-27T18:29:51.934Z,15.90
2019-04-27T18:32:23.625Z,15.97
2019-04-27T18:34:50.766Z,14.63
2019-04-27T18:37:24.438Z,14.13
2019-04-27T18:39:54.509Z,15.30
2019-04-27T18:42:23.260Z,18.63
2019-04-27T18:44:50.074Z,16.10
2019-04-27T18:47:18.461Z,13.30
2019-04-27T18:49:54.701Z,13.50
2019-04-27T18:52:47.481Z,23.67
2019-04-27T18:55:16.674Z,17.50
2019-04-27T18:57:46.086Z,14.00
2019-04-27T19:00:18.274Z,12.73
2019-04-27T19:02:48.244Z,19.23
2019-04-27T19:05:18.716Z,20.03
2019-04-27T19:07:48.410Z,19.47
2019-04-27T19:10:19.036Z,19.33
2019-04-27T19:12:48.398Z,18.23
2019-04-27T19:15:18.369Z,18.77
2019-04-27T19:17:48.947Z,20.60
2019-04-27T19:20:18.627Z,21.00
2019-04-27T19:22:48.978Z,14.40
2019-04-27T19:25:35.935Z,14.97
2019-04-27T19:28:22.357Z,18.90
2019-04-27T19:30:55.337Z,17.73
2019-04-27T19:33:23.733Z,20.23
2019-04-27T19:35:52.139Z,26.40
2019-04-27T19:38:20.544Z,18.23
2019-04-27T19:40:48.938Z,17.60
2019-04-27T19:43:18.056Z,25.07
2019-04-27T19:45:48.255Z,19.23
2019-04-27T19:48:18.159Z,21.93
2019-04-27T19:50:47.268Z,19.13
2019-04-27T19:53:15.643Z,17.57
2019-04-27T19:55:45.684Z,16.43
2019-04-27T19:58:15.706Z,15.27
2019-04-27T20:01:14.269Z,13.53
2019-04-27T20:03:54.436Z,11.60
2019-04-27T20:06:22.918Z,18.10
2019-04-27T20:08:55.337Z,20.30
2019-04-27T20:11:23.726Z,18.23
2019-04-27T20:13:52.549Z,19.10
2019-04-27T20:16:21.489Z,20.07
2019-04-27T20:18:51.637Z,18.50
2019-04-27T20:21:20.993Z,16.30
2019-04-27T20:23:50.732Z,16.17
2019-04-27T20:26:19.175Z,20.67
2019-04-27T20:28:47.586Z,16.60
2019-04-27T20:31:15.965Z,19.03
2019-04-27T20:33:44.354Z,17.27
2019-04-27T20:36:32.108Z,17.67
2019-04-27T20:39:01.281Z,19.33
2019-04-27T20:41:31.829Z,15.97
2019-04-27T20:44:02.211Z,18.20
2019-04-27T20:46:31.173Z,19.70
2019-04-27T20:49:01.909Z,20.97
2019-04-27T20:51:52.867Z,14.80
2019-04-27T20:54:21.954Z,15.80
2019-04-27T20:56:53.202Z,17.63
2019-04-27T20:59:22.105Z,20.47
2019-04-27T21:01:50.569Z,18.23
2019-04-27T21:04:21.035Z,18.43
2019-04-27T21:06:51.758Z,18.87
2019-04-27T21:09:21.343Z,14.33
2019-04-27T21:11:50.426Z,18.87
2019-04-27T21:14:18.817Z,18.30
2019-04-27T21:16:48.797Z,19.73
2019-04-27T21:19:17.173Z,15.20
2019-04-27T21:21:45.577Z,22.30
2019-04-27T21:24:13.952Z,15.43
2019-04-27T21:26:42.340Z,12.07
2019-04-27T21:29:11.670Z,20.00
2019-04-27T21:31:41.812Z,16.90
2019-04-27T21:34:10.293Z,15.90
2019-04-27T21:36:40.822Z,13.63
2019-04-27T21:39:08.936Z,18.30
2019-04-27T21:41:37.344Z,19.43
2019-04-27T21:44:05.790Z,16.30
2019-04-27T21:46:34.940Z,18.30
2019-04-27T21:49:03.944Z,18.00
2019-04-27T21:51:33.979Z,15.63
2019-04-27T21:54:06.740Z,19.37
2019-04-27T21:56:35.128Z,20.60
2019-04-27T21:59:03.512Z,18.77
2019-04-27T22:01:33.566Z,18.83
2019-04-27T22:04:02.024Z,21.93
2019-04-27T22:06:30.416Z,22.97
2019-04-27T22:08:58.811Z,22.67
2019-04-27T22:11:27.188Z,16.03
2019-04-27T22:13:55.589Z,17.13
2019-04-27T22:16:23.985Z,15.90
2019-04-27T22:18:52.459Z,19.83
2019-04-27T22:21:21.635Z,18.20
2019-04-27T22:23:57.578Z,21.30
2019-04-27T22:26:25.956Z,17.67
2019-04-27T22:28:54.412Z,15.67
2019-04-27T22:31:22.824Z,23.63
2019-04-27T22:33:54.383Z,18.23
2019-04-27T22:36:21.411Z,11.90
2019-04-27T22:38:51.535Z,17.83
2019-04-27T22:41:31.382Z,21.13
2019-04-27T22:44:17.196Z,19.93
2019-04-27T22:46:50.371Z,23.20
2019-04-27T22:49:18.753Z,17.63
2019-04-27T22:51:47.140Z,23.33
2019-04-27T22:54:15.533Z,13.93
2019-04-27T22:56:45.573Z,19.13
2019-04-27T22:59:18.321Z,16.67
2019-04-27T23:01:48.344Z,15.30
2019-04-27T23:04:21.369Z,20.27
2019-04-27T23:06:49.769Z,19.63
2019-04-27T23:09:18.156Z,13.77
2019-04-27T23:11:46.542Z,19.83
2019-04-27T23:14:14.933Z,19.17
2019-04-27T23:16:48.186Z,11.47
2019-04-27T23:19:16.573Z,14.77
2019-04-27T23:21:45.058Z,15.63
2019-04-27T23:24:13.445Z,13.67
2019-04-27T23:26:41.826Z,20.77
2019-04-27T23:29:13.703Z,20.93
2019-04-27T23:31:54.277Z,20.53
2019-04-27T23:34:22.762Z,20.00
2019-04-27T23:36:51.148Z,26.47
2019-04-27T23:39:19.526Z,15.50
2019-04-27T23:41:48.052Z,22.33
2019-04-27T23:44:16.437Z,21.43
2019-04-27T23:46:44.828Z,16.33
2019-04-27T23:49:13.209Z,17.20
2019-04-27T23:51:43.243Z,20.23
2019-04-27T23:54:11.659Z,22.03
2019-04-27T23:56:41.895Z,22.83
2019-04-27T23:59:10.195Z,22.80
